Terminal Aerodrome Forecast
Issued by NWS

Home | Current Version | Previous Version | Text Only | Print | Product List | Glossary On
Versions: 1 2 3 4 5 6 7 8 9 10 11 12
000
FTUS42 TJSJ 281700
TAFKPK
TAF
TKPK 281729Z 2818/0118 07019G29KT P6SM VCSH SCT018 BKN040
     FM010000 07015KT P6SM FEW018 SCT030
     FM011200 06017KT P6SM VCSH SCT020 SCT035
      AMD NOT SKED 0102/0111=

USA.gov is the U.S. government's official web portal to all federal, state and local government web resources and services.